Time;durP1;ratioP1;P1;durP2;ratioP2;P2;SDS_P1;SDS_P2;PMS_P1;PMS_P2;Temp;Humidity;BMP_temperature;BMP_pressure;BME280_temperature;BME280_humidity;BME280_pressure;Samples;Min_cycle;Max_cycle;Signal;HPM_P1;HPM_P2
2023/01/27 04:08:14;;;;;;;52.10;27.80;;;;;;;-2.86;100.00;100189.08;106598;1286;23913;-71
2023/01/27 04:11:53;;;;;;;48.10;26.50;;;;;;;-2.70;100.00;100187.48;109525;1288;22956;-71
2023/01/27 04:13:31;;;;;;;40.60;23.60;;;;;;;-2.52;100.00;100193.61;109548;1288;22355;-71
2023/01/27 04:15:59;;;;;;;39.20;22.00;;;;;;;-2.40;100.00;100189.69;109556;1288;22412;-71
2023/01/27 04:18:28;;;;;;;34.10;20.50;;;;;;;-2.27;100.00;100188.80;107571;1282;396873;-71
2023/01/27 04:20:57;;;;;;;35.30;21.50;;;;;;;-2.19;100.00;100189.04;106908;1285;22769;-71
2023/01/27 04:23:25;;;;;;;36.80;22.20;;;;;;;-2.15;100.00;100189.48;106933;1286;22605;-71
2023/01/27 04:25:55;;;;;;;39.40;23.10;;;;;;;-2.11;100.00;100193.45;107188;1279;22655;-71
2023/01/27 04:28:23;;;;;;;39.20;23.30;;;;;;;-2.04;100.00;100196.52;107256;1279;25285;-71
2023/01/27 04:31:08;;;;;;;33.50;21.30;;;;;;;-1.96;100.00;100197.39;107337;1277;24342;-71
2023/01/27 04:33:37;;;;;;;35.70;22.00;;;;;;;-1.92;100.00;100195.08;107477;1273;24266;-71
2023/01/27 04:36:05;;;;;;;37.20;23.30;;;;;;;-1.91;100.00;100191.60;107376;1277;25475;-71
2023/01/27 04:38:34;;;;;;;38.70;22.90;;;;;;;-1.93;100.00;100194.29;107488;1278;22610;-71
2023/01/27 04:41:02;;;;;;;42.60;24.20;;;;;;;-1.95;100.00;100194.90;107396;1278;25230;-71
2023/01/27 04:43:31;;;;;;;39.30;24.30;;;;;;;-1.88;100.00;100195.52;107349;1276;25331;-71
2023/01/27 04:45:59;;;;;;;35.90;22.50;;;;;;;-1.81;100.00;100197.88;107018;1279;25363;-70
2023/01/27 04:48:28;;;;;;;35.30;23.10;;;;;;;-1.78;100.00;100198.06;107383;1278;26229;-70
2023/01/27 04:50:56;;;;;;;35.00;22.40;;;;;;;-1.78;100.00;100203.60;107179;1273;22933;-70
2023/01/27 04:53:24;;;;;;;37.10;23.10;;;;;;;-1.82;100.00;100204.90;107258;1274;24410;-70
2023/01/27 04:56:00;;;;;;;36.00;23.50;;;;;;;-1.84;100.00;100199.88;107150;1276;25388;-70
2023/01/27 04:58:29;;;;;;;33.50;22.00;;;;;;;-1.81;100.00;100200.80;107292;1279;25312;-70
2023/01/27 05:00:58;;;;;;;36.80;21.90;;;;;;;-1.79;100.00;100201.17;107323;1278;22526;-70
2023/01/27 05:03:28;;;;;;;35.80;21.60;;;;;;;-1.79;100.00;100199.93;107313;1279;22530;-70
2023/01/27 05:05:56;;;;;;;36.70;23.00;;;;;;;-1.83;100.00;100199.36;107357;1279;22612;-70
2023/01/27 05:08:25;;;;;;;34.00;21.90;;;;;;;-1.89;100.00;100193.72;108378;1272;22291;-70
2023/01/27 05:10:53;;;;;;;36.20;22.80;;;;;;;-1.95;100.00;100196.72;110101;1273;23012;-70
2023/01/27 05:13:22;;;;;;;35.10;22.60;;;;;;;-1.90;100.00;100201.63;110095;1274;22364;-70
2023/01/27 05:15:50;;;;;;;36.60;23.50;;;;;;;-1.83;100.00;100198.83;110183;1278;22534;-70
2023/01/27 05:18:19;;;;;;;35.10;22.40;;;;;;;-1.78;100.00;100201.09;110099;1278;22223;-70
2023/01/27 05:20:47;;;;;;;38.30;23.40;;;;;;;-1.78;100.00;100198.42;109082;1277;22681;-70
2023/01/27 05:23:34;;;;;;;38.40;24.40;;;;;;;-1.81;100.00;100198.75;107335;1279;25344;-70
2023/01/27 05:26:10;;;;;;;40.10;24.30;;;;;;;-1.87;100.00;100197.45;107158;1279;23484;-70
2023/01/27 05:28:39;;;;;;;36.30;23.30;;;;;;;-1.87;100.00;100198.40;107269;1273;22563;-70
2023/01/27 05:31:11;;;;;;;38.50;23.80;;;;;;;-1.85;100.00;100199.83;107383;1278;26204;-71
2023/01/27 05:33:40;;;;;;;36.60;23.80;;;;;;;-1.90;100.00;100201.64;107390;1278;24686;-71
2023/01/27 05:36:13;;;;;;;36.80;23.60;;;;;;;-1.98;100.00;100200.76;107367;1273;22526;-68
2023/01/27 05:38:41;;;;;;;37.60;25.00;;;;;;;-2.02;100.00;100207.80;106835;1275;25353;-68
2023/01/27 05:41:10;;;;;;;37.80;24.30;;;;;;;-1.99;100.00;100202.92;107072;1274;25328;-68
2023/01/27 05:43:40;;;;;;;36.70;24.50;;;;;;;-1.94;100.00;100203.86;107358;1267;23375;-69
2023/01/27 05:46:13;;;;;;;42.70;25.10;;;;;;;-1.94;100.00;100202.60;106680;1253;22534;-68
2023/01/27 05:48:43;;;;;;;40.50;25.30;;;;;;;-1.97;100.00;100198.60;107797;1267;22537;-69
2023/01/27 05:51:12;;;;;;;40.20;25.50;;;;;;;-1.99;100.00;100198.73;107671;1275;24364;-69
2023/01/27 05:53:43;;;;;;;36.50;23.00;;;;;;;-1.95;100.00;100196.58;110421;1273;22468;-69
2023/01/27 05:56:14;;;;;;;38.70;24.40;;;;;;;-1.90;100.00;100200.66;110452;1270;22597;-69
2023/01/27 05:58:44;;;;;;;40.50;23.60;;;;;;;-1.92;100.00;100199.71;110460;1272;22335;-70
2023/01/27 06:01:14;;;;;;;35.50;23.60;;;;;;;-1.97;100.00;100200.31;110409;1267;22436;-70
2023/01/27 06:03:43;;;;;;;37.80;24.40;;;;;;;-1.93;100.00;100199.45;110268;1275;23346;-69
2023/01/27 06:06:12;;;;;;;38.00;23.60;;;;;;;-1.89;100.00;100199.73;110445;1271;22168;-69
2023/01/27 06:08:41;;;;;;;34.40;23.10;;;;;;;-1.86;100.00;100201.33;110423;1273;22304;-71
2023/01/27 06:11:09;;;;;;;35.60;22.90;;;;;;;-1.87;100.00;100206.77;110412;1273;22212;-72
2023/01/27 06:13:39;;;;;;;36.10;23.30;;;;;;;-1.92;100.00;100205.47;108530;1267;22567;-69
2023/01/27 06:16:11;;;;;;;38.00;23.30;;;;;;;-1.95;100.00;100209.75;107399;1275;22389;-70
2023/01/27 06:18:39;;;;;;;33.60;21.10;;;;;;;-1.89;100.00;100210.27;110407;1275;22474;-70
2023/01/27 06:21:09;;;;;;;31.20;20.40;;;;;;;-1.86;100.00;100212.71;110428;1275;22206;-70
2023/01/27 06:23:38;;;;;;;32.20;20.50;;;;;;;-1.85;100.00;100218.67;110432;1275;22384;-70
2023/01/27 06:26:11;;;;;;;34.40;21.60;;;;;;;-1.87;100.00;100213.50;110464;1275;22242;-71
2023/01/27 06:28:39;;;;;;;36.70;22.90;;;;;;;-1.87;100.00;100215.64;110445;1275;22195;-70
2023/01/27 06:31:15;;;;;;;36.80;22.70;;;;;;;-1.87;100.00;100220.85;110420;1275;22205;-70
2023/01/27 06:33:44;;;;;;;35.10;23.20;;;;;;;-1.85;100.00;100220.58;110365;1275;23057;-70
2023/01/27 06:36:14;;;;;;;32.50;21.00;;;;;;;-1.81;100.00;100218.63;110441;1267;22191;-70
2023/01/27 06:38:42;;;;;;;35.30;22.80;;;;;;;-1.82;100.00;100212.77;110465;1275;22337;-71
2023/01/27 06:41:10;;;;;;;38.90;23.00;;;;;;;-1.87;100.00;100211.21;110493;1275;22211;-71
2023/01/27 06:43:41;;;;;;;37.80;22.60;;;;;;;-1.87;100.00;100204.61;110481;1275;22267;-69
2023/01/27 06:46:09;;;;;;;34.80;20.50;;;;;;;-1.83;100.00;100204.54;110465;1275;23062;-71
2023/01/27 06:48:37;;;;;;;35.70;22.10;;;;;;;-1.82;100.00;100208.16;110467;1275;22422;-70
2023/01/27 06:51:09;;;;;;;37.90;22.80;;;;;;;-1.88;100.00;100205.98;110481;1275;22246;-70
2023/01/27 06:53:37;;;;;;;37.50;23.80;;;;;;;-1.92;100.00;100206.90;110450;1275;22243;-70
2023/01/27 06:56:06;;;;;;;37.60;23.50;;;;;;;-1.99;100.00;100207.65;108447;1267;22516;-70
2023/01/27 06:58:36;;;;;;;35.30;22.40;;;;;;;-1.98;100.00;100212.24;106932;1274;23731;-70
2023/01/27 07:01:05;;;;;;;35.30;22.70;;;;;;;-1.97;100.00;100213.33;106736;1268;24335;-69
2023/01/27 07:03:34;;;;;;;36.80;22.90;;;;;;;-1.98;100.00;100214.48;106787;1268;25343;-70
2023/01/27 07:06:01;;;;;;;36.20;23.20;;;;;;;-2.02;100.00;100209.60;106896;1275;25408;-70
2023/01/27 07:08:33;;;;;;;36.90;23.20;;;;;;;-2.10;100.00;100204.00;106673;1275;22530;-71
2023/01/27 07:11:03;;;;;;;35.70;22.60;;;;;;;-2.16;100.00;100205.99;106848;1275;26312;-70
2023/01/27 07:13:32;;;;;;;37.40;22.20;;;;;;;-2.15;100.00;100212.09;106968;1275;23703;-70
2023/01/27 07:16:00;;;;;;;37.20;22.10;;;;;;;-2.12;100.00;100208.19;106842;1275;23211;-70
2023/01/27 07:18:29;;;;;;;36.30;22.40;;;;;;;-2.08;100.00;100212.30;106940;1274;25437;-70
2023/01/27 07:20:57;;;;;;;40.10;23.60;;;;;;;-2.08;100.00;100209.95;106855;1267;25462;-71
2023/01/27 07:23:26;;;;;;;37.90;24.10;;;;;;;-2.12;100.00;100209.23;106993;1275;25346;-70
2023/01/27 07:25:54;;;;;;;38.90;23.70;;;;;;;-2.18;100.00;100210.63;107011;1275;24047;-70
2023/01/27 07:28:24;;;;;;;39.40;23.70;;;;;;;-2.17;100.00;100212.83;106875;1275;25356;-71
2023/01/27 07:30:52;;;;;;;36.90;21.90;;;;;;;-2.11;100.00;100211.54;106925;1275;23257;-71
2023/01/27 07:33:21;;;;;;;37.10;22.40;;;;;;;-2.05;100.00;100216.03;106783;1275;26492;-70
2023/01/27 07:35:49;;;;;;;35.20;23.00;;;;;;;-2.04;100.00;100213.60;106777;1274;25337;-70
2023/01/27 07:38:17;;;;;;;36.30;21.80;;;;;;;-2.03;100.00;100220.23;110364;1275;23071;-69
2023/01/27 07:40:45;;;;;;;34.20;20.70;;;;;;;-2.00;100.00;100214.16;110465;1275;22208;-69
2023/01/27 07:43:14;;;;;;;32.00;19.80;;;;;;;-1.96;100.00;100217.96;110442;1275;22185;-70
2023/01/27 07:45:42;;;;;;;33.70;21.40;;;;;;;-1.92;100.00;100216.45;110262;1275;22206;-71
2023/01/27 07:48:11;;;;;;;34.70;21.90;;;;;;;-1.92;100.00;100215.52;110455;1275;22413;-71
2023/01/27 12:31:48;;;;;;;153.60;66.40;;;;;;;-1.28;100.00;100098.77;104366;1313;544981;-70
2023/01/27 12:34:29;;;;;;;122.30;57.40;;;;;;;-1.15;100.00;100097.84;106770;1276;26241;-70
2023/01/27 12:36:57;;;;;;;117.20;55.50;;;;;;;-0.99;100.00;100092.63;106640;1276;25421;-69
2023/01/27 12:39:27;;;;;;;117.70;58.20;;;;;;;-0.87;100.00;100082.80;106517;1276;25318;-70
2023/01/27 12:41:57;;;;;;;116.40;58.10;;;;;;;-0.79;100.00;100081.96;110345;1276;22850;-70
2023/01/27 12:44:27;;;;;;;115.60;58.70;;;;;;;-0.74;100.00;100080.26;110259;1273;228098;-70
2023/01/27 12:46:59;;;;;;;119.40;59.60;;;;;;;-0.66;100.00;100083.31;110491;1274;22278;-70
2023/01/27 12:49:36;;;;;;;126.70;63.90;;;;;;;-0.52;100.00;100085.26;110468;1274;22226;-70
2023/01/27 12:52:07;;;;;;;112.20;59.40;;;;;;;-0.41;100.00;100093.25;110469;1274;22243;-71
2023/01/27 12:54:36;;;;;;;115.70;57.10;;;;;;;-0.39;100.00;100092.40;110442;1274;22672;-71
2023/01/27 12:57:05;;;;;;;120.50;57.50;;;;;;;-0.36;100.00;100088.80;110443;1274;22958;-70
2023/01/27 12:59:34;;;;;;;167.20;78.60;;;;;;;-0.27;100.00;100088.89;110404;1274;22250;-71
2023/01/27 13:02:17;;;;;;;126.40;60.90;;;;;;;-0.17;100.00;100091.20;110410;1274;22984;-71
2023/01/27 13:04:56;;;;;;;112.80;58.50;;;;;;;-0.11;100.00;100090.39;110493;1266;22261;-70
2023/01/27 13:07:29;;;;;;;117.60;61.80;;;;;;;-0.10;100.00;100091.13;110485;1274;22208;-70
2023/01/27 13:10:01;;;;;;;120.00;61.90;;;;;;;-0.12;100.00;100087.29;110487;1274;23055;-70
2023/01/27 13:12:46;;;;;;;114.30;59.90;;;;;;;-0.13;100.00;100082.83;110241;1275;22478;-70
2023/01/27 13:15:18;;;;;;;109.60;56.70;;;;;;;-0.09;100.00;100088.34;110300;1274;22419;-70
2023/01/27 13:17:49;;;;;;;110.80;56.50;;;;;;;-0.05;100.00;100093.89;110499;1274;22392;-70
2023/01/27 13:20:29;;;;;;;112.00;56.80;;;;;;;-0.05;100.00;100095.34;110465;1274;22213;-70
2023/01/27 13:23:02;;;;;;;115.80;60.00;;;;;;;-0.09;100.00;100086.53;110463;1251;22275;-71
2023/01/27 13:26:04;;;;;;;113.90;56.90;;;;;;;-0.09;100.00;100084.42;110442;1274;22936;-70
2023/01/27 13:28:38;;;;;;;120.80;57.20;;;;;;;-0.02;100.00;100079.95;110483;1274;22360;-71
2023/01/27 13:31:41;;;;;;;124.00;58.00;;;;;;;-0.02;100.00;100081.40;110440;1274;22977;-71
2023/01/27 13:34:38;;;;;;;116.40;58.10;;;;;;;-0.07;100.00;100076.50;110485;1274;22228;-71
2023/01/27 13:37:27;;;;;;;126.60;59.90;;;;;;;-0.11;100.00;100074.69;110458;1274;23293;-71
2023/01/27 13:40:02;;;;;;;;;;;;;;;-0.07;100.00;100072.88;110492;1274;23347;-70
2023/01/27 13:42:43;;;;;;;;;;;;;;;-0.05;100.00;100076.80;110506;1274;23178;-70
2023/01/27 13:45:12;;;;;;;;;;;;;;;-0.14;100.00;100077.73;110430;1275;23118;-70
2023/01/27 13:47:43;;;;;;;;;;;;;;;-0.23;100.00;100078.02;110514;1274;22403;-69
2023/01/27 13:50:30;;;;;;;;;;;;;;;-0.30;100.00;100079.77;110418;1274;23272;-70
2023/01/27 13:52:59;;;;;;;;;;;;;;;-0.32;100.00;100084.04;110452;1269;22435;-70
2023/01/27 13:55:47;;;;;;;;;;;;;;;-0.27;100.00;100086.66;110446;1274;22769;-70
2023/01/27 13:58:20;;;;;;;;;;;;;;;-0.31;100.00;100085.19;110457;1274;22451;-72
2023/01/27 14:04:31;;;;;;;;;;;;;;;-0.47;100.00;100085.92;110495;1274;22351;-71
2023/01/27 14:07:16;;;;;;;;;;;;;;;-0.48;100.00;100092.16;110523;1274;22491;-71
2023/01/27 14:09:47;;;;;;;;;;;;;;;-0.59;100.00;100091.03;110391;1273;22418;-70
2023/01/27 14:12:15;;;;;;;;;;;;;;;-0.71;100.00;100095.54;110440;1274;22428;-71
2023/01/27 14:14:46;;;;;;;;;;;;;;;-0.76;100.00;100099.34;110480;1274;22472;-71
2023/01/27 14:17:37;;;;;;;;;;;;;;;-0.75;100.00;100092.66;110403;1269;22385;-71
2023/01/27 14:20:08;;;;;;;;;;;;;;;-0.77;100.00;100087.77;110445;1274;22437;-69
2023/01/27 14:22:45;;;;;;;;;;;;;;;-0.87;100.00;100093.50;110451;1274;22547;-70
2023/01/27 14:25:23;;;;;;;;;;;;;;;-1.00;100.00;100100.37;110485;1274;22410;-70
2023/01/27 14:27:54;;;;;;;;;;;;;;;-1.11;100.00;100104.92;110462;1274;23308;-71
2023/01/27 14:30:28;;;;;;;;;;;;;;;-1.13;100.00;100106.34;110233;1273;23303;-71
2023/01/27 14:33:02;;;;;;;;;;;;;;;-1.14;100.00;100104.46;110411;1274;23192;-71
2023/01/27 14:35:47;;;;;;;;;;;;;;;-1.24;100.00;100106.90;110483;1267;22417;-71
2023/01/27 14:38:31;;;;;;;;;;;;;;;-1.35;100.00;100113.86;110416;1274;22422;-70
2023/01/27 14:41:17;;;;;;;;;;;;;;;-1.42;100.00;100112.98;110407;1274;22422;-72
2023/01/27 14:43:52;;;;;;;;;;;;;;;-1.43;100.00;100114.09;110444;1274;22413;-70
2023/01/27 14:46:42;;;;;;;;;;;;;;;-1.48;100.00;100110.45;110469;1267;22520;-71
2023/01/27 14:49:13;;;;;;;;;;;;;;;-1.60;100.00;100109.77;110480;1274;22586;-70
2023/01/27 14:51:42;;;;;;;;;;;;;;;-1.65;100.00;100112.47;110501;1274;23157;-71
2023/01/27 14:54:12;;;;;;;;;;;;;;;-1.66;100.00;100113.65;110483;1273;22464;-70
2023/01/27 14:56:59;;;;;;;;;;;;;;;-1.74;100.00;100116.41;110441;1270;22430;-71
2023/01/27 14:59:40;;;;;;;;;;;;;;;-1.81;100.00;100114.91;110465;1274;23299;-71
2023/01/27 15:02:26;;;;;;;;;;;;;;;-1.78;100.00;100114.83;110502;1273;23210;-70
2023/01/27 15:04:55;;;;;;;;;;;;;;;-1.81;100.00;100119.09;110473;1274;22487;-69
2023/01/27 15:07:23;;;;;;;;;;;;;;;-1.88;100.00;100122.10;110439;1270;22429;-69
2023/01/27 15:09:54;;;;;;;;;;;;;;;-1.90;100.00;100121.88;110417;1267;22434;-70
2023/01/27 15:12:42;;;;;;;;;;;;;;;-1.83;100.00;100125.19;110498;1274;23567;-71
2023/01/27 15:15:20;;;;;;;;;;;;;;;-1.84;100.00;100121.77;110488;1267;22527;-70
2023/01/27 15:18:05;;;;;;;;;;;;;;;-1.93;100.00;100118.55;110501;1268;22431;-70
2023/01/27 15:20:39;;;;;;;;;;;;;;;-1.98;100.00;100118.95;110429;1274;22412;-70
2023/01/27 15:23:16;;;;;;;;;;;;;;;-1.97;100.00;100118.14;110472;1274;22407;-70
2023/01/27 15:25:46;;;;;;;;;;;;;;;-2.02;100.00;100119.42;110512;1269;22484;-71
2023/01/27 15:28:14;;;;;;;;;;;;;;;-2.07;100.00;100113.58;110437;1271;22379;-70
2023/01/27 15:31:00;;;;;;;;;;;;;;;-2.04;100.00;100119.48;110507;1267;23203;-71
2023/01/27 15:33:45;;;;;;;;;;;;;;;-2.07;100.00;100121.80;110480;1273;23615;-71
2023/01/27 15:36:31;;;;;;;;;;;;;;;-2.12;100.00;100119.35;110549;1274;22432;-70
2023/01/27 15:39:08;;;;;;;;;;;;;;;-2.07;100.00;100125.96;110489;1274;22483;-71
2023/01/27 15:41:36;;;;;;;;;;;;;;;-2.10;100.00;100126.38;110487;1267;22416;-70
2023/01/27 15:44:14;;;;;;;;;;;;;;;-2.14;100.00;100129.02;110424;1267;22433;-70
2023/01/27 15:46:43;;;;;;;;;;;;;;;-2.09;100.00;100124.53;110467;1274;22462;-70
2023/01/27 15:49:19;;;;;;;;;;;;;;;-2.08;100.00;100125.62;110427;1274;22420;-70
2023/01/27 19:59:13;;;;;;;85.60;38.70;;;;;;;-3.98;100.00;100171.16;103512;1305;545655;-65
2023/01/27 20:01:42;;;;;;;66.20;33.90;;;;;;;-3.83;100.00;100178.68;106310;1282;22533;-65
2023/01/27 20:04:11;;;;;;;54.30;28.70;;;;;;;-3.64;100.00;100172.63;106491;1281;25575;-66
2023/01/27 20:06:40;;;;;;;52.70;27.10;;;;;;;-3.47;100.00;100175.58;109919;1281;22918;-66
2023/01/27 20:09:10;;;;;;;46.10;25.50;;;;;;;-3.31;100.00;100178.59;109924;1281;22200;-66
2023/01/27 20:11:40;;;;;;;41.90;23.50;;;;;;;-3.16;100.00;100177.66;109910;1275;23048;-65
2023/01/27 20:14:14;;;;;;;41.50;25.30;;;;;;;-3.06;100.00;100169.60;109932;1279;22814;-66
2023/01/27 20:16:42;;;;;;;42.30;23.40;;;;;;;-2.98;100.00;100170.71;110195;1279;22207;-67
2023/01/27 20:19:14;;;;;;;42.70;23.60;;;;;;;-2.88;100.00;100165.98;110163;1279;22889;-66
2023/01/27 20:21:44;;;;;;;39.80;22.80;;;;;;;-2.78;100.00;100165.22;110059;1279;22305;-67
2023/01/27 20:24:16;;;;;;;40.50;22.60;;;;;;;-2.76;100.00;100164.20;110042;1280;22481;-66
2023/01/27 20:26:45;;;;;;;35.10;20.50;;;;;;;-2.75;100.00;100164.98;110057;1280;22516;-66
2023/01/27 20:29:14;;;;;;;33.90;19.90;;;;;;;-2.69;100.00;100164.89;109931;1279;23166;-66
2023/01/27 20:31:44;;;;;;;35.40;21.10;;;;;;;-2.70;100.00;100170.10;110089;1279;22284;-67
2023/01/27 20:34:12;;;;;;;35.80;21.10;;;;;;;-2.72;100.00;100166.27;110111;1279;22303;-66
2023/01/27 20:36:40;;;;;;;33.30;19.30;;;;;;;-2.67;100.00;100162.27;110101;1279;22209;-67
2023/01/27 20:39:08;;;;;;;34.70;21.10;;;;;;;-2.63;100.00;100160.95;110074;1279;22352;-66
2023/01/27 20:41:39;;;;;;;37.70;21.60;;;;;;;-2.64;100.00;100159.66;110104;1279;22222;-66
2023/01/27 20:44:10;;;;;;;35.50;21.50;;;;;;;-2.59;100.00;100158.14;110118;1279;22302;-66
2023/01/27 20:46:38;;;;;;;35.70;21.40;;;;;;;-2.55;100.00;100152.52;110111;1279;22309;-67
2023/01/27 20:49:06;;;;;;;37.30;22.10;;;;;;;-2.56;100.00;100151.76;110088;1279;22323;-67
2023/01/27 20:51:34;;;;;;;38.10;22.40;;;;;;;-2.57;100.00;100153.16;110104;1279;22962;-67
2023/01/27 20:54:04;;;;;;;37.30;22.30;;;;;;;-2.53;100.00;100152.34;110106;1279;23271;-66
2023/01/27 20:56:32;;;;;;;37.20;22.60;;;;;;;-2.52;100.00;100150.43;110089;1279;22256;-66
2023/01/27 20:59:00;;;;;;;37.50;22.40;;;;;;;-2.54;100.00;100153.83;110098;1279;22261;-66
2023/01/27 21:01:29;;;;;;;39.30;23.40;;;;;;;-2.50;100.00;100157.35;110100;1279;22257;-66
2023/01/27 21:03:57;;;;;;;37.70;22.30;;;;;;;-2.48;100.00;100157.64;110084;1279;22570;-67
2023/01/27 21:06:25;;;;;;;38.10;22.50;;;;;;;-2.51;100.00;100157.73;110101;1279;22930;-67
2023/01/27 21:08:54;;;;;;;37.50;22.10;;;;;;;-2.54;100.00;100160.05;110053;1278;22508;-67
2023/01/27 21:11:22;;;;;;;35.30;21.10;;;;;;;-2.50;100.00;100161.27;110083;1279;22233;-66
2023/01/27 21:13:51;;;;;;;35.60;21.60;;;;;;;-2.48;100.00;100166.56;110060;1279;22503;-66
2023/01/27 21:16:19;;;;;;;38.00;22.40;;;;;;;-2.54;100.00;100164.90;110046;1279;22256;-66
2023/01/27 21:18:48;;;;;;;36.50;21.40;;;;;;;-2.56;100.00;100158.14;110056;1279;22915;-66
2023/01/27 21:21:20;;;;;;;35.70;22.00;;;;;;;-2.51;100.00;100155.79;110068;1279;22274;-67
2023/01/27 21:23:48;;;;;;;41.80;23.70;;;;;;;-2.51;100.00;100155.23;110079;1279;23018;-66
2023/01/27 21:26:16;;;;;;;36.10;22.10;;;;;;;-2.55;100.00;100153.20;110076;1279;22361;-66
2023/01/27 21:28:44;;;;;;;36.90;22.50;;;;;;;-2.50;100.00;100150.21;110105;1279;22288;-66
2023/01/27 21:31:15;;;;;;;38.00;22.70;;;;;;;-2.44;100.00;100146.52;110084;1276;22424;-67
2023/01/27 21:33:44;;;;;;;36.90;21.60;;;;;;;-2.45;100.00;100146.60;110096;1279;22405;-67
2023/01/27 21:36:12;;;;;;;37.90;22.30;;;;;;;-2.47;100.00;100146.27;110055;1279;22312;-66
2023/01/27 21:38:41;;;;;;;36.50;22.40;;;;;;;-2.41;100.00;100147.21;110066;1279;22424;-66
2023/01/27 21:45:10;;;;;;;39.40;23.10;;;;;;;-2.36;100.00;100150.36;109941;1279;22396;-67
2023/01/27 21:46:49;;;;;;;38.00;22.30;;;;;;;-2.47;100.00;100151.81;110078;1279;22389;-66
2023/01/27 21:49:17;;;;;;;38.90;22.90;;;;;;;-2.45;100.00;100145.91;110116;1279;22472;-67
2023/01/27 21:51:46;;;;;;;39.60;24.30;;;;;;;-2.41;100.00;100138.89;110089;1279;22416;-66
2023/01/27 21:54:17;;;;;;;38.00;23.90;;;;;;;-2.43;100.00;100140.52;110091;1279;22279;-66
2023/01/27 21:56:45;;;;;;;38.10;22.50;;;;;;;-2.46;100.00;100138.21;110067;1279;22856;-67
2023/01/27 21:59:14;;;;;;;40.30;23.10;;;;;;;-2.40;100.00;100132.37;110086;1279;22924;-67
2023/01/27 22:01:42;;;;;;;38.60;22.00;;;;;;;-2.34;100.00;100127.23;110092;1279;22197;-67
2023/01/27 22:04:11;;;;;;;38.20;22.80;;;;;;;-2.36;100.00;100121.91;110098;1279;23282;-66
2023/01/27 22:06:41;;;;;;;39.40;22.40;;;;;;;-2.41;100.00;100120.05;110076;1279;22406;-66
2023/01/27 22:09:09;;;;;;;37.50;22.60;;;;;;;-2.45;100.00;100116.83;110095;1279;22394;-66
2023/01/27 22:11:38;;;;;;;35.90;23.00;;;;;;;-2.45;100.00;100110.75;110082;1279;22432;-66
2023/01/27 22:14:07;;;;;;;39.40;23.20;;;;;;;-2.44;100.00;100104.25;110082;1279;22275;-66
2023/01/27 22:16:36;;;;;;;36.40;21.20;;;;;;;-2.47;100.00;100099.92;110066;1279;23180;-66
2023/01/27 22:19:05;;;;;;;34.80;21.50;;;;;;;-2.45;100.00;100095.49;110081;1279;22314;-66
2023/01/27 22:21:33;;;;;;;35.60;21.00;;;;;;;-2.50;100.00;100093.73;110091;1279;22885;-66
2023/01/27 22:24:01;;;;;;;29.40;18.90;;;;;;;-2.54;100.00;100091.12;110087;1279;22313;-66
2023/01/27 22:26:29;;;;;;;29.60;18.60;;;;;;;-2.53;100.00;100088.68;110073;1280;22203;-66
2023/01/27 22:28:57;;;;;;;31.00;19.30;;;;;;;-2.53;100.00;100087.29;110101;1279;22432;-66
2023/01/27 22:31:25;;;;;;;31.70;19.20;;;;;;;-2.58;100.00;100082.41;110121;1279;22291;-66
2023/01/27 22:33:53;;;;;;;33.00;19.40;;;;;;;-2.59;100.00;100082.13;110074;1279;22230;-67
2023/01/27 22:36:23;;;;;;;35.90;19.60;;;;;;;-2.62;100.00;100081.03;110090;1279;22195;-66
2023/01/27 22:38:51;;;;;;;31.10;18.50;;;;;;;-2.67;100.00;100082.13;110114;1279;22438;-66
2023/01/27 22:41:19;;;;;;;32.90;19.90;;;;;;;-2.66;100.00;100081.28;110098;1279;22263;-66
2023/01/27 22:43:50;;;;;;;33.00;19.40;;;;;;;-2.62;100.00;100077.16;110079;1279;22470;-66
2023/01/27 22:46:18;;;;;;;35.10;20.70;;;;;;;-2.66;100.00;100072.27;110053;1280;22983;-66
2023/01/27 22:48:48;;;;;;;31.30;19.30;;;;;;;-2.67;100.00;100072.41;110093;1280;22426;-66
2023/01/27 22:51:17;;;;;;;34.50;20.10;;;;;;;-2.64;100.00;100070.45;110079;1280;23035;-66
2023/01/27 22:53:46;;;;;;;36.30;20.90;;;;;;;-2.65;100.00;100071.21;110065;1279;22202;-66
2023/01/27 22:56:16;;;;;;;33.00;20.80;;;;;;;-2.68;100.00;100071.81;110068;1280;22902;-66
2023/01/27 22:58:44;;;;;;;32.60;20.70;;;;;;;-2.64;100.00;100070.81;110100;1279;23881;-66
2023/01/27 23:01:13;;;;;;;34.30;20.30;;;;;;;-2.65;100.00;100066.29;110107;1279;22268;-66
2023/01/27 23:03:41;;;;;;;32.00;20.00;;;;;;;-2.70;100.00;100061.34;110087;1279;22237;-66
2023/01/27 23:06:10;;;;;;;34.80;19.50;;;;;;;-2.70;100.00;100063.30;110095;1279;22229;-66
2023/01/27 23:08:38;;;;;;;34.70;21.70;;;;;;;-2.69;100.00;100061.42;110090;1279;22223;-66
2023/01/27 23:11:07;;;;;;;36.80;21.00;;;;;;;-2.70;100.00;100065.09;110101;1279;23210;-67
2023/01/27 23:13:36;;;;;;;35.50;20.90;;;;;;;-2.75;100.00;100066.10;110052;1279;22299;-66
2023/01/27 23:16:04;;;;;;;32.60;19.70;;;;;;;-2.74;100.00;100065.48;110069;1279;22243;-66
2023/01/27 23:18:33;;;;;;;34.10;20.00;;;;;;;-2.69;100.00;100067.13;110088;1279;22266;-66
2023/01/27 23:21:05;;;;;;;34.70;20.20;;;;;;;-2.70;100.00;100068.99;110078;1279;22916;-66
2023/01/27 23:23:34;;;;;;;31.40;20.20;;;;;;;-2.72;100.00;100067.14;110089;1279;22361;-66
2023/01/27 23:26:06;;;;;;;33.50;21.20;;;;;;;-2.73;100.00;100067.71;110106;1279;22217;-66
2023/01/27 23:28:38;;;;;;;32.50;21.30;;;;;;;-2.79;100.00;100069.73;110109;1279;23169;-66
2023/01/27 23:31:08;;;;;;;31.70;19.50;;;;;;;-2.78;100.00;100071.59;110064;1279;22943;-66
2023/01/27 23:33:38;;;;;;;31.20;20.50;;;;;;;-2.78;100.00;100075.83;110066;1280;23272;-66
2023/01/27 23:36:07;;;;;;;34.70;20.40;;;;;;;-2.81;100.00;100073.21;110008;1279;22646;-66
2023/01/27 23:38:35;;;;;;;32.30;19.50;;;;;;;-2.81;100.00;100070.83;110089;1279;22873;-66
2023/01/27 23:41:06;;;;;;;31.40;18.80;;;;;;;-2.77;100.00;100072.72;110084;1279;22276;-66
2023/01/27 23:43:34;;;;;;;35.20;20.60;;;;;;;-2.81;100.00;100067.16;110087;1280;22452;-66
2023/01/27 23:46:02;;;;;;;33.10;20.20;;;;;;;-2.83;100.00;100065.72;110098;1279;22201;-66
2023/01/27 23:48:31;;;;;;;31.20;19.50;;;;;;;-2.80;100.00;100069.17;110067;1279;22435;-66
2023/01/27 23:51:05;;;;;;;32.80;20.20;;;;;;;-2.83;100.00;100063.46;110058;1279;22461;-66
2023/01/27 23:53:33;;;;;;;29.70;18.50;;;;;;;-2.84;100.00;100059.88;110084;1279;22274;-66
